sensor_id;sensor_type;location;lat;lon;timestamp;pressure;altitude;pressure_sealevel;temperature;humidity
80405;BME280;69733;48.744;9.176;2024-01-15T00:02:09;95769.56;;;-2.84;80.94
80405;BME280;69733;48.744;9.176;2024-01-15T00:04:38;95758.94;;;-2.83;81.38
80405;BME280;69733;48.744;9.176;2024-01-15T00:07:05;95757.97;;;-2.82;81.22
80405;BME280;69733;48.744;9.176;2024-01-15T00:09:30;95757.63;;;-2.79;80.79
80405;BME280;69733;48.744;9.176;2024-01-15T00:11:55;95758.44;;;-2.78;81.01
80405;BME280;69733;48.744;9.176;2024-01-15T00:14:22;95757.63;;;-2.79;80.81
80405;BME280;69733;48.744;9.176;2024-01-15T00:16:47;95753.09;;;-2.77;81.03
80405;BME280;69733;48.744;9.176;2024-01-15T00:19:14;95750.78;;;-2.80;81.45
80405;BME280;69733;48.744;9.176;2024-01-15T00:21:39;95754.75;;;-2.84;81.36
80405;BME280;69733;48.744;9.176;2024-01-15T00:24:05;95746.97;;;-2.92;81.38
80405;BME280;69733;48.744;9.176;2024-01-15T00:26:30;95744.41;;;-3.00;81.75
80405;BME280;69733;48.744;9.176;2024-01-15T00:28:55;95740.25;;;-3.09;82.12
80405;BME280;69733;48.744;9.176;2024-01-15T00:31:21;95749.72;;;-3.16;82.00
80405;BME280;69733;48.744;9.176;2024-01-15T00:33:46;95744.38;;;-3.23;82.39
80405;BME280;69733;48.744;9.176;2024-01-15T00:36:11;95741.63;;;-3.29;82.57
80405;BME280;69733;48.744;9.176;2024-01-15T00:38:37;95737.75;;;-3.33;82.15
80405;BME280;69733;48.744;9.176;2024-01-15T00:41:02;95749.63;;;-3.39;82.41
80405;BME280;69733;48.744;9.176;2024-01-15T00:43:28;95755.50;;;-3.45;83.02
80405;BME280;69733;48.744;9.176;2024-01-15T00:45:53;95751.78;;;-3.51;83.02
80405;BME280;69733;48.744;9.176;2024-01-15T00:48:18;95746.44;;;-3.57;82.95
80405;BME280;69733;48.744;9.176;2024-01-15T00:50:44;95749.72;;;-3.63;83.31
80405;BME280;69733;48.744;9.176;2024-01-15T00:53:09;95753.47;;;-3.66;82.87
80405;BME280;69733;48.744;9.176;2024-01-15T00:55:34;95757.03;;;-3.67;82.48
80405;BME280;69733;48.744;9.176;2024-01-15T00:58:01;95753.81;;;-3.69;82.49
80405;BME280;69733;48.744;9.176;2024-01-15T01:00:26;95753.63;;;-3.67;82.84
80405;BME280;69733;48.744;9.176;2024-01-15T01:02:51;95752.66;;;-3.66;82.38
80405;BME280;69733;48.744;9.176;2024-01-15T01:05:17;95756.06;;;-3.66;82.60
80405;BME280;69733;48.744;9.176;2024-01-15T01:07:42;95759.97;;;-3.62;82.74
80405;BME280;69733;48.744;9.176;2024-01-15T01:10:08;95753.59;;;-3.59;82.13
80405;BME280;69733;48.744;9.176;2024-01-15T01:12:33;95757.16;;;-3.52;82.10
80405;BME280;69733;48.744;9.176;2024-01-15T01:14:58;95743.47;;;-3.46;81.90
80405;BME280;69733;48.744;9.176;2024-01-15T01:17:25;95751.94;;;-3.44;81.71
80405;BME280;69733;48.744;9.176;2024-01-15T01:19:50;95751.25;;;-3.38;81.53
80405;BME280;69733;48.744;9.176;2024-01-15T01:22:15;95744.56;;;-3.32;81.82
80405;BME280;69733;48.744;9.176;2024-01-15T01:24:41;95742.28;;;-3.27;81.49
80405;BME280;69733;48.744;9.176;2024-01-15T01:27:06;95743.56;;;-3.23;81.44
80405;BME280;69733;48.744;9.176;2024-01-15T01:29:32;95745.47;;;-3.17;80.89
80405;BME280;69733;48.744;9.176;2024-01-15T01:31:57;95744.78;;;-3.11;81.23
80405;BME280;69733;48.744;9.176;2024-01-15T01:34:22;95741.06;;;-3.09;81.22
80405;BME280;69733;48.744;9.176;2024-01-15T01:36:48;95740.72;;;-3.06;81.09
80405;BME280;69733;48.744;9.176;2024-01-15T01:39:13;95737.44;;;-2.99;80.81
80405;BME280;69733;48.744;9.176;2024-01-15T01:41:39;95743.25;;;-2.97;81.15
80405;BME280;69733;48.744;9.176;2024-01-15T01:44:05;95737.75;;;-2.94;80.85
80405;BME280;69733;48.744;9.176;2024-01-15T01:46:30;95734.94;;;-2.93;81.16
80405;BME280;69733;48.744;9.176;2024-01-15T01:48:56;95737.19;;;-2.90;81.52
80405;BME280;69733;48.744;9.176;2024-01-15T01:51:23;95739.13;;;-2.84;81.03
80405;BME280;69733;48.744;9.176;2024-01-15T01:53:50;95743.53;;;-2.84;80.73
80405;BME280;69733;48.744;9.176;2024-01-15T01:56:16;95744.00;;;-2.81;81.24
80405;BME280;69733;48.744;9.176;2024-01-15T01:58:43;95743.81;;;-2.79;81.22
80405;BME280;69733;48.744;9.176;2024-01-15T02:01:10;95736.00;;;-2.79;80.95
80405;BME280;69733;48.744;9.176;2024-01-15T02:03:37;95731.59;;;-2.79;81.30
80405;BME280;69733;48.744;9.176;2024-01-15T02:06:03;95730.78;;;-2.79;81.58
80405;BME280;69733;48.744;9.176;2024-01-15T02:08:29;95730.63;;;-2.78;81.40
80405;BME280;69733;48.744;9.176;2024-01-15T02:10:54;95738.44;;;-2.78;81.31
80405;BME280;69733;48.744;9.176;2024-01-15T02:13:20;95743.66;;;-2.78;81.34
80405;BME280;69733;48.744;9.176;2024-01-15T02:15:45;95735.03;;;-2.78;81.14
80405;BME280;69733;48.744;9.176;2024-01-15T02:18:11;95725.13;;;-2.83;81.65
80405;BME280;69733;48.744;9.176;2024-01-15T02:20:36;95728.06;;;-2.86;81.75
80405;BME280;69733;48.744;9.176;2024-01-15T02:23:12;95721.25;;;-2.87;81.73
80405;BME280;69733;48.744;9.176;2024-01-15T02:25:40;95715.41;;;-2.89;82.18
80405;BME280;69733;48.744;9.176;2024-01-15T02:28:07;95714.94;;;-2.92;81.94
80405;BME280;69733;48.744;9.176;2024-01-15T02:30:36;95716.44;;;-2.98;82.15
80405;BME280;69733;48.744;9.176;2024-01-15T02:33:03;95719.56;;;-3.03;82.41
80405;BME280;69733;48.744;9.176;2024-01-15T02:35:28;95724.63;;;-3.09;81.86
80405;BME280;69733;48.744;9.176;2024-01-15T02:37:53;95731.31;;;-3.15;82.20
80405;BME280;69733;48.744;9.176;2024-01-15T02:40:19;95717.22;;;-3.20;82.71
80405;BME280;69733;48.744;9.176;2024-01-15T02:42:44;95724.72;;;-3.25;82.82
80405;BME280;69733;48.744;9.176;2024-01-15T02:45:09;95712.22;;;-3.30;82.84
80405;BME280;69733;48.744;9.176;2024-01-15T02:47:35;95713.69;;;-3.35;82.81
80405;BME280;69733;48.744;9.176;2024-01-15T02:50:00;95708.84;;;-3.38;82.60
80405;BME280;69733;48.744;9.176;2024-01-15T02:52:25;95708.53;;;-3.43;82.80
80405;BME280;69733;48.744;9.176;2024-01-15T02:54:51;95707.28;;;-3.47;82.72
80405;BME280;69733;48.744;9.176;2024-01-15T02:57:16;95706.63;;;-3.49;83.12
80405;BME280;69733;48.744;9.176;2024-01-15T02:59:41;95701.91;;;-3.54;83.23
80405;BME280;69733;48.744;9.176;2024-01-15T03:02:07;95710.88;;;-3.57;82.47
80405;BME280;69733;48.744;9.176;2024-01-15T03:04:32;95714.63;;;-3.59;82.68
80405;BME280;69733;48.744;9.176;2024-01-15T03:06:57;95708.28;;;-3.65;82.68
80405;BME280;69733;48.744;9.176;2024-01-15T03:09:22;95697.25;;;-3.67;83.34
80405;BME280;69733;48.744;9.176;2024-01-15T03:11:48;95698.41;;;-3.69;83.14
80405;BME280;69733;48.744;9.176;2024-01-15T03:14:14;95703.13;;;-3.73;83.22
80405;BME280;69733;48.744;9.176;2024-01-15T03:16:39;95693.72;;;-3.74;82.61
80405;BME280;69733;48.744;9.176;2024-01-15T03:19:04;95706.88;;;-3.75;83.24
80405;BME280;69733;48.744;9.176;2024-01-15T03:21:29;95703.63;;;-3.77;82.57
80405;BME280;69733;48.744;9.176;2024-01-15T03:23:55;95703.78;;;-3.79;82.76
80405;BME280;69733;48.744;9.176;2024-01-15T03:26:20;95699.41;;;-3.78;82.73
80405;BME280;69733;48.744;9.176;2024-01-15T03:28:45;95700.22;;;-3.78;83.03
80405;BME280;69733;48.744;9.176;2024-01-15T03:31:11;95707.19;;;-3.78;82.97
80405;BME280;69733;48.744;9.176;2024-01-15T03:33:36;95700.88;;;-3.76;82.97
80405;BME280;69733;48.744;9.176;2024-01-15T03:36:02;95688.84;;;-3.77;82.51
80405;BME280;69733;48.744;9.176;2024-01-15T03:38:28;95696.66;;;-3.77;82.43
80405;BME280;69733;48.744;9.176;2024-01-15T03:40:53;95689.69;;;-3.76;82.36
80405;BME280;69733;48.744;9.176;2024-01-15T03:43:19;95689.50;;;-3.75;82.45
80405;BME280;69733;48.744;9.176;2024-01-15T03:45:44;95682.34;;;-3.73;82.45
80405;BME280;69733;48.744;9.176;2024-01-15T03:48:09;95676.81;;;-3.70;82.43
80405;BME280;69733;48.744;9.176;2024-01-15T03:50:34;95684.91;;;-3.65;82.71
80405;BME280;69733;48.744;9.176;2024-01-15T03:53:00;95679.22;;;-3.60;82.16
80405;BME280;69733;48.744;9.176;2024-01-15T03:55:25;95676.09;;;-3.56;81.85
80405;BME280;69733;48.744;9.176;2024-01-15T03:57:50;95679.00;;;-3.51;82.15
80405;BME280;69733;48.744;9.176;2024-01-15T04:00:16;95677.69;;;-3.46;82.10
80405;BME280;69733;48.744;9.176;2024-01-15T04:02:44;95679.78;;;-3.42;81.59
80405;BME280;69733;48.744;9.176;2024-01-15T04:05:10;95676.69;;;-3.37;81.35
80405;BME280;69733;48.744;9.176;2024-01-15T04:07:35;95672.91;;;-3.35;81.97
80405;BME280;69733;48.744;9.176;2024-01-15T04:10:00;95663.81;;;-3.31;81.40
80405;BME280;69733;48.744;9.176;2024-01-15T04:12:25;95669.63;;;-3.29;81.80
80405;BME280;69733;48.744;9.176;2024-01-15T04:14:51;95666.19;;;-3.21;81.19
80405;BME280;69733;48.744;9.176;2024-01-15T04:17:16;95664.84;;;-3.17;81.72
80405;BME280;69733;48.744;9.176;2024-01-15T04:19:44;95659.31;;;-3.14;81.24
80405;BME280;69733;48.744;9.176;2024-01-15T04:22:09;95667.41;;;-3.09;81.78
80405;BME280;69733;48.744;9.176;2024-01-15T04:24:34;95658.91;;;-3.03;81.70
80405;BME280;69733;48.744;9.176;2024-01-15T04:27:00;95660.53;;;-3.02;81.39
80405;BME280;69733;48.744;9.176;2024-01-15T04:29:25;95657.06;;;-2.94;81.32
80405;BME280;69733;48.744;9.176;2024-01-15T04:31:52;95663.38;;;-2.89;81.04
80405;BME280;69733;48.744;9.176;2024-01-15T04:34:18;95657.81;;;-2.86;81.42
80405;BME280;69733;48.744;9.176;2024-01-15T04:36:43;95659.56;;;-2.78;81.28
80405;BME280;69733;48.744;9.176;2024-01-15T04:39:08;95659.56;;;-2.78;81.64
80405;BME280;69733;48.744;9.176;2024-01-15T04:41:34;95665.06;;;-2.73;81.36
80405;BME280;69733;48.744;9.176;2024-01-15T04:43:59;95669.72;;;-2.69;81.36
80405;BME280;69733;48.744;9.176;2024-01-15T04:46:26;95666.75;;;-2.66;81.30
80405;BME280;69733;48.744;9.176;2024-01-15T04:48:52;95669.03;;;-2.63;81.31
80405;BME280;69733;48.744;9.176;2024-01-15T04:51:17;95661.69;;;-2.59;81.21
80405;BME280;69733;48.744;9.176;2024-01-15T04:53:42;95667.97;;;-2.54;81.13
80405;BME280;69733;48.744;9.176;2024-01-15T04:56:07;95679.38;;;-2.55;81.37
80405;BME280;69733;48.744;9.176;2024-01-15T04:58:33;95666.66;;;-2.49;81.64
80405;BME280;69733;48.744;9.176;2024-01-15T05:00:58;95668.91;;;-2.46;81.41
80405;BME280;69733;48.744;9.176;2024-01-15T05:03:23;95667.72;;;-2.44;81.36
80405;BME280;69733;48.744;9.176;2024-01-15T05:05:49;95676.19;;;-2.42;81.53
80405;BME280;69733;48.744;9.176;2024-01-15T05:08:14;95674.41;;;-2.41;81.28
80405;BME280;69733;48.744;9.176;2024-01-15T05:10:39;95675.00;;;-2.39;81.42
80405;BME280;69733;48.744;9.176;2024-01-15T05:13:05;95655.00;;;-2.39;81.53
80405;BME280;69733;48.744;9.176;2024-01-15T05:15:30;95659.03;;;-2.36;81.57
80405;BME280;69733;48.744;9.176;2024-01-15T05:17:55;95652.69;;;-2.34;81.59
80405;BME280;69733;48.744;9.176;2024-01-15T05:20:21;95641.47;;;-2.34;82.03
80405;BME280;69733;48.744;9.176;2024-01-15T05:22:47;95644.69;;;-2.32;81.79
80405;BME280;69733;48.744;9.176;2024-01-15T05:25:12;95647.94;;;-2.30;81.84
80405;BME280;69733;48.744;9.176;2024-01-15T05:27:37;95637.97;;;-2.27;81.65
80405;BME280;69733;48.744;9.176;2024-01-15T05:30:03;95645.59;;;-2.25;81.81
80405;BME280;69733;48.744;9.176;2024-01-15T05:32:29;95638.59;;;-2.25;81.97
80405;BME280;69733;48.744;9.176;2024-01-15T05:34:54;95646.41;;;-2.25;81.92
80405;BME280;69733;48.744;9.176;2024-01-15T05:37:20;95647.22;;;-2.24;82.29
80405;BME280;69733;48.744;9.176;2024-01-15T05:39:45;95651.25;;;-2.22;82.01
80405;BME280;69733;48.744;9.176;2024-01-15T05:42:10;95648.13;;;-2.17;81.97
80405;BME280;69733;48.744;9.176;2024-01-15T05:44:36;95641.63;;;-2.21;82.45
80405;BME280;69733;48.744;9.176;2024-01-15T05:47:01;95639.03;;;-2.21;81.72
80405;BME280;69733;48.744;9.176;2024-01-15T05:49:26;95637.06;;;-2.19;82.14
80405;BME280;69733;48.744;9.176;2024-01-15T05:51:52;95628.91;;;-2.16;82.47
80405;BME280;69733;48.744;9.176;2024-01-15T05:54:18;95640.09;;;-2.16;81.98
80405;BME280;69733;48.744;9.176;2024-01-15T05:56:43;95635.72;;;-2.15;82.54
80405;BME280;69733;48.744;9.176;2024-01-15T05:59:09;95636.53;;;-2.15;82.45
80405;BME280;69733;48.744;9.176;2024-01-15T06:01:34;95638.97;;;-2.13;82.34
80405;BME280;69733;48.744;9.176;2024-01-15T06:03:59;95632.13;;;-2.14;82.10
80405;BME280;69733;48.744;9.176;2024-01-15T06:06:25;95638.59;;;-2.10;82.23
80405;BME280;69733;48.744;9.176;2024-01-15T06:08:50;95626.56;;;-2.11;82.20
80405;BME280;69733;48.744;9.176;2024-01-15T06:11:15;95624.75;;;-2.11;82.31
80405;BME280;69733;48.744;9.176;2024-01-15T06:13:41;95627.97;;;-2.09;82.34
80405;BME280;69733;48.744;9.176;2024-01-15T06:16:16;95633.56;;;-2.12;82.43
80405;BME280;69733;48.744;9.176;2024-01-15T06:18:42;95629.97;;;-2.11;82.68
80405;BME280;69733;48.744;9.176;2024-01-15T06:21:07;95634.22;;;-2.10;82.83
80405;BME280;69733;48.744;9.176;2024-01-15T06:23:35;95636.00;;;-2.10;82.70
80405;BME280;69733;48.744;9.176;2024-01-15T06:26:00;95624.59;;;-2.09;82.81
80405;BME280;69733;48.744;9.176;2024-01-15T06:28:28;95622.78;;;-2.09;83.22
80405;BME280;69733;48.744;9.176;2024-01-15T06:30:54;95624.59;;;-2.09;82.82
80405;BME280;69733;48.744;9.176;2024-01-15T06:33:19;95617.56;;;-2.09;82.67
80405;BME280;69733;48.744;9.176;2024-01-15T06:35:44;95619.84;;;-2.06;82.90
80405;BME280;69733;48.744;9.176;2024-01-15T06:38:10;95617.41;;;-2.07;82.85
80405;BME280;69733;48.744;9.176;2024-01-15T06:40:35;95612.81;;;-2.05;82.82
80405;BME280;69733;48.744;9.176;2024-01-15T06:43:01;95611.22;;;-2.06;82.90
80405;BME280;69733;48.744;9.176;2024-01-15T06:45:26;95599.78;;;-2.05;82.74
80405;BME280;69733;48.744;9.176;2024-01-15T06:47:51;95601.22;;;-2.03;82.76
80405;BME280;69733;48.744;9.176;2024-01-15T06:50:16;95597.97;;;-2.05;82.70
80405;BME280;69733;48.744;9.176;2024-01-15T06:52:42;95595.00;;;-2.02;82.84
80405;BME280;69733;48.744;9.176;2024-01-15T06:55:07;95594.22;;;-2.02;83.04
80405;BME280;69733;48.744;9.176;2024-01-15T06:57:33;95588.22;;;-2.03;82.50
80405;BME280;69733;48.744;9.176;2024-01-15T06:59:58;95596.63;;;-2.01;82.81
80405;BME280;69733;48.744;9.176;2024-01-15T07:02:23;95588.00;;;-2.01;82.59
80405;BME280;69733;48.744;9.176;2024-01-15T07:04:49;95587.47;;;-1.96;83.01
80405;BME280;69733;48.744;9.176;2024-01-15T07:07:14;95588.44;;;-1.97;83.07
80405;BME280;69733;48.744;9.176;2024-01-15T07:09:40;95597.09;;;-1.97;82.58
80405;BME280;69733;48.744;9.176;2024-01-15T07:12:06;95592.53;;;-1.95;82.96
80405;BME280;69733;48.744;9.176;2024-01-15T07:14:31;95589.91;;;-1.95;82.69
80405;BME280;69733;48.744;9.176;2024-01-15T07:16:57;95589.53;;;-1.92;82.68
80405;BME280;69733;48.744;9.176;2024-01-15T07:19:22;95583.69;;;-1.94;82.64
80405;BME280;69733;48.744;9.176;2024-01-15T07:21:47;95587.91;;;-1.93;82.90
80405;BME280;69733;48.744;9.176;2024-01-15T07:24:12;95597.97;;;-1.90;82.88
80405;BME280;69733;48.744;9.176;2024-01-15T07:26:38;95601.56;;;-1.91;82.88
80405;BME280;69733;48.744;9.176;2024-01-15T07:29:04;95601.22;;;-1.88;82.99
80405;BME280;69733;48.744;9.176;2024-01-15T07:31:29;95601.84;;;-1.86;82.89
80405;BME280;69733;48.744;9.176;2024-01-15T07:33:54;95608.69;;;-1.85;82.95
80405;BME280;69733;48.744;9.176;2024-01-15T07:36:20;95604.91;;;-1.82;82.35
80405;BME280;69733;48.744;9.176;2024-01-15T07:38:45;95602.13;;;-1.81;82.61
80405;BME280;69733;48.744;9.176;2024-01-15T07:41:12;95604.53;;;-1.79;82.96
80405;BME280;69733;48.744;9.176;2024-01-15T07:43:38;95605.19;;;-1.77;82.50
80405;BME280;69733;48.744;9.176;2024-01-15T07:46:03;95606.59;;;-1.75;82.78
80405;BME280;69733;48.744;9.176;2024-01-15T07:48:30;95601.03;;;-1.72;82.58
80405;BME280;69733;48.744;9.176;2024-01-15T07:50:55;95595.81;;;-1.72;82.52
80405;BME280;69733;48.744;9.176;2024-01-15T07:53:20;95598.31;;;-1.64;82.10
80405;BME280;69733;48.744;9.176;2024-01-15T07:55:46;95601.91;;;-1.65;82.64
80405;BME280;69733;48.744;9.176;2024-01-15T07:58:11;95608.09;;;-1.66;82.69
80405;BME280;69733;48.744;9.176;2024-01-15T08:00:37;95605.78;;;-1.61;82.27
80405;BME280;69733;48.744;9.176;2024-01-15T08:03:02;95605.56;;;-1.59;82.31
80405;BME280;69733;48.744;9.176;2024-01-15T08:05:28;95602.78;;;-1.58;82.14
80405;BME280;69733;48.744;9.176;2024-01-15T08:07:53;95607.84;;;-1.56;82.61
80405;BME280;69733;48.744;9.176;2024-01-15T08:10:18;95604.28;;;-1.48;82.13
80405;BME280;69733;48.744;9.176;2024-01-15T08:12:44;95606.91;;;-1.48;82.10
80405;BME280;69733;48.744;9.176;2024-01-15T08:15:10;95613.56;;;-1.46;82.06
80405;BME280;69733;48.744;9.176;2024-01-15T08:17:35;95611.78;;;-1.45;81.98
80405;BME280;69733;48.744;9.176;2024-01-15T08:20:00;95608.41;;;-1.39;82.32
80405;BME280;69733;48.744;9.176;2024-01-15T08:22:26;95609.03;;;-1.37;82.10
80405;BME280;69733;48.744;9.176;2024-01-15T08:24:51;95618.66;;;-1.38;81.91
80405;BME280;69733;48.744;9.176;2024-01-15T08:27:17;95614.69;;;-1.34;82.21
80405;BME280;69733;48.744;9.176;2024-01-15T08:29:42;95617.28;;;-1.34;82.22
80405;BME280;69733;48.744;9.176;2024-01-15T08:32:08;95613.16;;;-1.28;82.13
80405;BME280;69733;48.744;9.176;2024-01-15T08:34:39;95617.63;;;-1.22;81.91
80405;BME280;69733;48.744;9.176;2024-01-15T08:37:04;95611.44;;;-1.21;82.10
80405;BME280;69733;48.744;9.176;2024-01-15T08:39:29;95601.06;;;-1.15;81.82
80405;BME280;69733;48.744;9.176;2024-01-15T08:41:55;95601.72;;;-1.06;81.70
80405;BME280;69733;48.744;9.176;2024-01-15T08:44:20;95608.63;;;-0.98;81.80
80405;BME280;69733;48.744;9.176;2024-01-15T08:46:45;95601.06;;;-0.93;81.58
80405;BME280;69733;48.744;9.176;2024-01-15T08:49:10;95609.56;;;-0.85;81.17
80405;BME280;69733;48.744;9.176;2024-01-15T08:51:36;95606.78;;;-0.83;81.20
80405;BME280;69733;48.744;9.176;2024-01-15T08:54:01;95605.84;;;-0.76;81.03
80405;BME280;69733;48.744;9.176;2024-01-15T08:56:27;95622.50;;;-0.77;81.46
80405;BME280;69733;48.744;9.176;2024-01-15T08:58:52;95611.69;;;-0.74;81.26
80405;BME280;69733;48.744;9.176;2024-01-15T09:01:17;95614.91;;;-0.72;81.36
80405;BME280;69733;48.744;9.176;2024-01-15T09:03:44;95616.94;;;-0.67;81.24
80405;BME280;69733;48.744;9.176;2024-01-15T09:06:10;95613.78;;;-0.63;81.18
80405;BME280;69733;48.744;9.176;2024-01-15T09:08:35;95609.25;;;-0.54;81.07
80405;BME280;69733;48.744;9.176;2024-01-15T09:11:02;95613.53;;;-0.46;80.54
80405;BME280;69733;48.744;9.176;2024-01-15T09:13:28;95610.72;;;-0.45;80.64
80405;BME280;69733;48.744;9.176;2024-01-15T09:15:53;95597.84;;;-0.46;80.92
80405;BME280;69733;48.744;9.176;2024-01-15T09:18:19;95604.88;;;-0.47;81.20
80405;BME280;69733;48.744;9.176;2024-01-15T09:20:44;95590.25;;;-0.41;81.03
80405;BME280;69733;48.744;9.176;2024-01-15T09:23:09;95591.09;;;-0.34;80.74
80405;BME280;69733;48.744;9.176;2024-01-15T09:25:35;95588.72;;;-0.29;80.60
80405;BME280;69733;48.744;9.176;2024-01-15T09:28:00;95580.69;;;-0.28;80.79
80405;BME280;69733;48.744;9.176;2024-01-15T09:30:25;95577.69;;;-0.25;80.69
80405;BME280;69733;48.744;9.176;2024-01-15T09:32:51;95577.94;;;-0.20;80.75
80405;BME280;69733;48.744;9.176;2024-01-15T09:35:16;95569.69;;;-0.17;80.88
80405;BME280;69733;48.744;9.176;2024-01-15T09:37:41;95557.84;;;-0.13;80.38
80405;BME280;69733;48.744;9.176;2024-01-15T09:40:08;95566.50;;;-0.12;80.47
80405;BME280;69733;48.744;9.176;2024-01-15T09:42:39;95565.34;;;-0.03;80.40
80405;BME280;69733;48.744;9.176;2024-01-15T09:45:06;95579.25;;;0.04;80.50
80405;BME280;69733;48.744;9.176;2024-01-15T09:47:31;95584.69;;;0.03;80.33
80405;BME280;69733;48.744;9.176;2024-01-15T09:49:56;95578.09;;;0.07;80.28
80405;BME280;69733;48.744;9.176;2024-01-15T09:52:24;95572.66;;;0.08;80.24
80405;BME280;69733;48.744;9.176;2024-01-15T09:54:50;95569.03;;;0.09;80.54
80405;BME280;69733;48.744;9.176;2024-01-15T09:57:16;95571.25;;;0.12;80.29
80405;BME280;69733;48.744;9.176;2024-01-15T09:59:42;95566.28;;;0.17;80.23
80405;BME280;69733;48.744;9.176;2024-01-15T10:02:09;95562.22;;;0.15;80.28
80405;BME280;69733;48.744;9.176;2024-01-15T10:04:35;95567.25;;;0.16;80.43
80405;BME280;69733;48.744;9.176;2024-01-15T10:07:01;95555.00;;;0.17;80.25
80405;BME280;69733;48.744;9.176;2024-01-15T10:09:27;95558.44;;;0.24;80.07
80405;BME280;69733;48.744;9.176;2024-01-15T10:11:53;95551.63;;;0.29;79.91
80405;BME280;69733;48.744;9.176;2024-01-15T10:14:19;95548.41;;;0.27;79.86
80405;BME280;69733;48.744;9.176;2024-01-15T10:16:44;95556.84;;;0.29;79.80
80405;BME280;69733;48.744;9.176;2024-01-15T10:19:10;95536.31;;;0.26;79.86
80405;BME280;69733;48.744;9.176;2024-01-15T10:21:36;95539.56;;;0.28;80.24
80405;BME280;69733;48.744;9.176;2024-01-15T10:24:03;95542.78;;;0.30;79.66
80405;BME280;69733;48.744;9.176;2024-01-15T10:26:29;95544.41;;;0.31;79.73
80405;BME280;69733;48.744;9.176;2024-01-15T10:28:54;95538.34;;;0.31;79.85
80405;BME280;69733;48.744;9.176;2024-01-15T10:31:20;95532.31;;;0.30;79.87
80405;BME280;69733;48.744;9.176;2024-01-15T10:33:49;95539.97;;;0.32;79.72
80405;BME280;69733;48.744;9.176;2024-01-15T10:36:16;95537.16;;;0.33;79.84
80405;BME280;69733;48.744;9.176;2024-01-15T10:38:43;95525.53;;;0.42;79.56
80405;BME280;69733;48.744;9.176;2024-01-15T10:41:09;95520.50;;;0.47;79.40
80405;BME280;69733;48.744;9.176;2024-01-15T10:43:34;95524.72;;;0.48;79.41
80405;BME280;69733;48.744;9.176;2024-01-15T10:45:59;95517.06;;;0.54;79.29
80405;BME280;69733;48.744;9.176;2024-01-15T10:48:25;95505.63;;;0.55;78.96
80405;BME280;69733;48.744;9.176;2024-01-15T10:50:53;95501.00;;;0.57;79.07
80405;BME280;69733;48.744;9.176;2024-01-15T10:53:20;95492.13;;;0.58;79.25
80405;BME280;69733;48.744;9.176;2024-01-15T10:55:46;95496.97;;;0.61;78.55
80405;BME280;69733;48.744;9.176;2024-01-15T10:58:12;95499.41;;;0.75;78.53
80405;BME280;69733;48.744;9.176;2024-01-15T11:00:39;95497.81;;;0.74;78.27
80405;BME280;69733;48.744;9.176;2024-01-15T11:03:06;95511.91;;;0.80;78.30
80405;BME280;69733;48.744;9.176;2024-01-15T11:05:37;95502.84;;;0.82;78.22
80405;BME280;69733;48.744;9.176;2024-01-15T11:08:06;95505.28;;;0.90;78.05
80405;BME280;69733;48.744;9.176;2024-01-15T11:10:39;95500.25;;;0.95;77.97
80405;BME280;69733;48.744;9.176;2024-01-15T11:13:23;95502.06;;;0.95;78.03
80405;BME280;69733;48.744;9.176;2024-01-15T11:16:01;95504.69;;;1.02;77.85
80405;BME280;69733;48.744;9.176;2024-01-15T11:18:40;95492.81;;;0.99;77.75
80405;BME280;69733;48.744;9.176;2024-01-15T11:23:54;95491.38;;;1.03;77.68
80405;BME280;69733;48.744;9.176;2024-01-15T11:28:54;95484.72;;;1.07;77.67
80405;BME280;69733;48.744;9.176;2024-01-15T11:31:20;95476.66;;;1.15;77.76
80405;BME280;69733;48.744;9.176;2024-01-15T11:33:51;95469.19;;;1.25;77.42
80405;BME280;69733;48.744;9.176;2024-01-15T11:36:17;95475.06;;;1.14;78.06
80405;BME280;69733;48.744;9.176;2024-01-15T11:38:42;95476.09;;;1.13;77.93
80405;BME280;69733;48.744;9.176;2024-01-15T11:41:14;95472.44;;;1.14;77.58
80405;BME280;69733;48.744;9.176;2024-01-15T11:43:42;95479.28;;;1.15;77.76
80405;BME280;69733;48.744;9.176;2024-01-15T11:46:11;95471.22;;;1.10;77.69
80405;BME280;69733;48.744;9.176;2024-01-15T11:48:43;95485.94;;;1.11;77.96
80405;BME280;69733;48.744;9.176;2024-01-15T11:51:12;95490.38;;;1.11;77.74
80405;BME280;69733;48.744;9.176;2024-01-15T11:53:43;95478.91;;;1.05;77.85
80405;BME280;69733;48.744;9.176;2024-01-15T11:56:16;95484.94;;;0.99;78.07
80405;BME280;69733;48.744;9.176;2024-01-15T11:58:42;95496.19;;;0.93;78.04
80405;BME280;69733;48.744;9.176;2024-01-15T12:01:10;95493.41;;;0.88;78.53
80405;BME280;69733;48.744;9.176;2024-01-15T12:03:36;95489.75;;;0.82;78.18
80405;BME280;69733;48.744;9.176;2024-01-15T12:06:01;95487.75;;;0.78;78.44
80405;BME280;69733;48.744;9.176;2024-01-15T12:08:27;95486.31;;;0.82;78.34
80405;BME280;69733;48.744;9.176;2024-01-15T12:10:52;95488.56;;;0.85;78.17
80405;BME280;69733;48.744;9.176;2024-01-15T12:13:19;95492.19;;;0.84;78.10
80405;BME280;69733;48.744;9.176;2024-01-15T12:15:46;95503.06;;;0.81;78.28
80405;BME280;69733;48.744;9.176;2024-01-15T12:18:14;95506.66;;;0.80;78.03
80405;BME280;69733;48.744;9.176;2024-01-15T12:20:40;95499.41;;;0.75;78.44
80405;BME280;69733;48.744;9.176;2024-01-15T12:23:06;95503.41;;;0.71;78.35
80405;BME280;69733;48.744;9.176;2024-01-15T12:25:32;95504.44;;;0.64;78.65
80405;BME280;69733;48.744;9.176;2024-01-15T12:27:59;95505.63;;;0.61;78.76
80405;BME280;69733;48.744;9.176;2024-01-15T12:30:29;95511.25;;;0.58;78.88
80405;BME280;69733;48.744;9.176;2024-01-15T12:32:56;95512.66;;;0.54;78.88
80405;BME280;69733;48.744;9.176;2024-01-15T12:35:24;95499.78;;;0.53;78.82
80405;BME280;69733;48.744;9.176;2024-01-15T12:37:49;95501.59;;;0.45;78.85
80405;BME280;69733;48.744;9.176;2024-01-15T12:40:19;95504.38;;;0.44;78.70
80405;BME280;69733;48.744;9.176;2024-01-15T12:42:44;95501.56;;;0.39;78.84
80405;BME280;69733;48.744;9.176;2024-01-15T12:45:11;95508.19;;;0.35;79.24
80405;BME280;69733;48.744;9.176;2024-01-15T12:47:38;95499.31;;;0.29;78.95
80405;BME280;69733;48.744;9.176;2024-01-15T12:50:08;95502.53;;;0.25;79.39
80405;BME280;69733;48.744;9.176;2024-01-15T12:52:34;95498.09;;;0.25;79.18
80405;BME280;69733;48.744;9.176;2024-01-15T12:54:59;95504.94;;;0.26;79.05
80405;BME280;69733;48.744;9.176;2024-01-15T12:57:25;95506.97;;;0.24;79.36
80405;BME280;69733;48.744;9.176;2024-01-15T12:59:50;95508.19;;;0.28;79.20
80405;BME280;69733;48.744;9.176;2024-01-15T13:02:16;95508.19;;;0.35;78.92